createdAt,value
2022-11-19T00:01:22.591Z,7.45
2022-11-19T00:03:53.002Z,10.25
2022-11-19T00:06:22.816Z,9.63
2022-11-19T00:08:50.507Z,9.48
2022-11-19T00:11:41.448Z,8.23
2022-11-19T00:14:09.814Z,9.30
2022-11-19T00:16:36.735Z,8.63
2022-11-19T00:19:04.111Z,7.25
2022-11-19T00:21:31.069Z,9.20
2022-11-19T00:23:58.212Z,10.68
2022-11-19T00:26:25.552Z,10.13
2022-11-19T00:28:52.546Z,9.07
2022-11-19T00:31:19.547Z,10.38
2022-11-19T00:33:46.876Z,8.70
2022-11-19T00:36:15.417Z,8.48
2022-11-19T00:38:43.341Z,8.82
2022-11-19T00:41:10.517Z,9.25
2022-11-19T00:43:50.177Z,8.20
2022-11-19T00:46:24.804Z,8.65
2022-11-19T00:48:53.813Z,8.45
2022-11-19T00:51:22.200Z,8.48
2022-11-19T00:53:49.080Z,10.90
2022-11-19T00:56:18.753Z,8.63
2022-11-19T00:58:46.871Z,9.60
2022-11-19T01:01:15.275Z,10.23
2022-11-19T01:03:45.412Z,8.68
2022-11-19T01:06:18.653Z,10.07
2022-11-19T01:08:47.389Z,8.57
2022-11-19T01:11:18.585Z,8.75
2022-11-19T01:13:45.870Z,9.30
2022-11-19T01:16:18.972Z,9.25
2022-11-19T01:18:48.004Z,7.82
2022-11-19T01:21:15.917Z,9.73
2022-11-19T01:23:44.076Z,8.35
2022-11-19T01:26:12.260Z,8.32
2022-11-19T01:28:39.292Z,8.07
2022-11-19T01:31:20.177Z,8.05
2022-11-19T01:33:48.073Z,8.57
2022-11-19T01:36:19.067Z,10.07
2022-11-19T01:38:51.066Z,8.27
2022-11-19T01:41:32.150Z,8.82
2022-11-19T01:44:01.417Z,7.97
2022-11-19T01:46:32.437Z,10.05
2022-11-19T01:49:09.583Z,8.07
2022-11-19T01:51:42.530Z,10.23
2022-11-19T01:54:30.202Z,9.43
2022-11-19T01:57:01.829Z,10.43
2022-11-19T01:59:31.368Z,10.07
2022-11-19T02:01:58.273Z,10.32
2022-11-19T02:04:26.952Z,9.32
2022-11-19T02:06:55.187Z,8.32
2022-11-19T02:09:22.841Z,10.50
2022-11-19T02:12:07.471Z,9.65
2022-11-19T02:14:43.716Z,10.18
2022-11-19T02:17:29.640Z,10.68
2022-11-19T02:20:37.381Z,9.30
2022-11-19T02:23:43.168Z,9.25
2022-11-19T02:26:18.551Z,9.77
2022-11-19T02:29:16.706Z,9.65
2022-11-19T02:32:10.698Z,9.40
2022-11-19T02:35:01.505Z,10.88
2022-11-19T02:37:43.228Z,7.65
2022-11-19T02:40:24.925Z,7.75
2022-11-19T02:43:00.152Z,8.63
2022-11-19T02:45:53.918Z,8.10
2022-11-19T02:48:40.609Z,7.75
2022-11-19T02:51:09.171Z,7.35
2022-11-19T02:53:36.179Z,7.53
2022-11-19T02:56:35.628Z,9.32
2022-11-19T02:59:22.080Z,7.65
2022-11-19T03:02:08.981Z,7.60
2022-11-19T03:04:35.959Z,7.95
2022-11-19T03:07:07.279Z,7.15
2022-11-19T03:09:39.220Z,7.35
2022-11-19T03:12:27.513Z,7.35
2022-11-19T03:15:14.470Z,7.50
2022-11-19T03:18:09.606Z,7.15
2022-11-19T03:20:40.790Z,8.95
2022-11-19T03:23:46.610Z,8.68
2022-11-19T03:26:26.069Z,8.63
2022-11-19T03:28:56.121Z,7.28
2022-11-19T03:31:26.073Z,6.85
2022-11-19T03:33:58.065Z,6.85
2022-11-19T03:36:31.331Z,6.47
2022-11-19T03:39:07.568Z,6.87
2022-11-19T03:41:37.921Z,6.37
2022-11-19T03:44:15.408Z,7.43
2022-11-19T03:46:44.437Z,8.80
2022-11-19T03:49:14.035Z,6.30
2022-11-19T03:52:03.184Z,7.62
2022-11-19T03:54:30.481Z,6.87
2022-11-19T03:56:58.949Z,6.97
2022-11-19T03:59:29.853Z,7.05
2022-11-19T04:02:00.896Z,7.50
2022-11-19T04:04:39.964Z,8.40
2022-11-19T04:07:22.187Z,8.30
2022-11-19T04:09:50.011Z,6.82
2022-11-19T04:12:20.075Z,7.75
2022-11-19T04:14:48.013Z,7.60
2022-11-19T04:17:16.221Z,7.45
2022-11-19T04:19:43.245Z,7.60
2022-11-19T04:22:10.831Z,7.70
2022-11-19T04:24:37.881Z,8.80
2022-11-19T04:27:05.061Z,8.35
2022-11-19T04:29:31.995Z,7.60
2022-11-19T04:31:58.931Z,7.45
2022-11-19T04:34:25.813Z,8.60
2022-11-19T04:36:52.763Z,9.27
2022-11-19T04:39:19.918Z,8.57
2022-11-19T04:41:47.218Z,6.93
2022-11-19T04:44:14.125Z,7.22
2022-11-19T04:46:41.040Z,7.12
2022-11-19T04:49:07.924Z,6.87
2022-11-19T04:51:34.916Z,7.15
2022-11-19T04:54:01.886Z,7.03
2022-11-19T04:56:28.788Z,7.03
2022-11-19T04:58:55.819Z,7.40
2022-11-19T05:01:22.916Z,6.60
2022-11-19T05:03:50.749Z,7.95
2022-11-19T05:06:17.671Z,6.95
2022-11-19T05:08:44.615Z,7.35
2022-11-19T05:11:11.769Z,6.57
2022-11-19T05:13:38.645Z,9.50
2022-11-19T05:16:05.943Z,7.05
2022-11-19T05:18:32.973Z,6.78
2022-11-19T05:20:59.940Z,6.50
2022-11-19T05:23:26.814Z,5.95
2022-11-19T05:25:53.760Z,6.25
2022-11-19T05:28:32.817Z,6.00
2022-11-19T05:31:05.444Z,6.00
2022-11-19T05:33:34.194Z,6.75
2022-11-19T05:36:02.027Z,5.35
2022-11-19T05:38:29.168Z,6.12
2022-11-19T05:40:56.247Z,5.35
2022-11-19T05:43:23.167Z,6.20
2022-11-19T05:45:50.108Z,6.07
2022-11-19T05:48:17.016Z,6.78
2022-11-19T05:50:43.920Z,6.97
2022-11-19T05:53:11.001Z,6.10
2022-11-19T05:55:37.880Z,5.68
2022-11-19T05:58:04.760Z,6.47
2022-11-19T06:00:31.751Z,5.62
2022-11-19T06:02:58.683Z,6.82
2022-11-19T06:05:25.705Z,7.37
2022-11-19T06:07:52.734Z,6.50
2022-11-19T06:10:19.602Z,6.70
2022-11-19T06:12:46.656Z,4.87
2022-11-19T06:15:14.431Z,5.72
2022-11-19T06:17:41.619Z,5.03
2022-11-19T06:20:11.079Z,5.35
2022-11-19T06:22:38.573Z,4.87
2022-11-19T06:25:06.372Z,5.57
2022-11-19T06:27:33.446Z,5.12
2022-11-19T06:30:00.585Z,5.32
2022-11-19T06:32:27.661Z,5.80
2022-11-19T06:34:54.544Z,5.22
2022-11-19T06:37:21.483Z,5.72
2022-11-19T06:39:48.372Z,4.47
2022-11-19T06:42:34.048Z,6.03
2022-11-19T06:45:00.974Z,5.87
2022-11-19T06:47:30.933Z,6.25
2022-11-19T06:49:58.006Z,4.85
2022-11-19T06:52:25.716Z,4.80
2022-11-19T06:54:52.773Z,5.30
2022-11-19T06:57:19.916Z,5.00
2022-11-19T06:59:47.474Z,6.47
2022-11-19T07:02:17.849Z,5.40
2022-11-19T07:04:47.256Z,6.00
2022-11-19T07:07:14.272Z,5.18
2022-11-19T07:09:41.276Z,5.50
2022-11-19T07:12:08.981Z,5.47
2022-11-19T07:14:36.123Z,5.57
2022-11-19T07:17:03.595Z,5.37
2022-11-19T07:19:31.166Z,5.47
2022-11-19T07:21:58.115Z,5.70
2022-11-19T07:24:25.052Z,5.62
2022-11-19T07:26:52.000Z,5.75
2022-11-19T07:29:19.350Z,5.35
2022-11-19T07:31:50.394Z,7.28
2022-11-19T07:34:18.052Z,5.22
2022-11-19T07:36:45.743Z,6.07
2022-11-19T07:39:12.974Z,4.60
2022-11-19T07:41:59.008Z,5.20
2022-11-19T07:44:25.959Z,5.45
2022-11-19T07:46:53.176Z,5.43
2022-11-19T07:49:20.699Z,4.10
2022-11-19T07:51:47.960Z,6.18
2022-11-19T07:54:15.017Z,4.87
2022-11-19T07:56:42.303Z,5.20
2022-11-19T07:59:10.210Z,5.18
2022-11-19T08:01:37.511Z,5.82
2022-11-19T08:04:05.394Z,5.97
2022-11-19T08:06:34.538Z,5.90
2022-11-19T08:09:03.316Z,5.97
2022-11-19T08:11:30.377Z,5.85
2022-11-19T08:14:00.080Z,6.70
2022-11-19T08:16:46.397Z,6.60
2022-11-19T08:19:15.670Z,4.72
2022-11-19T08:21:45.599Z,4.97
2022-11-19T08:24:13.882Z,5.43
2022-11-19T08:26:42.852Z,5.10
2022-11-19T08:29:15.749Z,6.30
2022-11-19T08:31:45.015Z,5.32
2022-11-19T08:34:11.953Z,6.80
2022-11-19T08:36:38.896Z,4.93
2022-11-19T08:39:06.826Z,6.62
2022-11-19T08:41:52.767Z,5.75
2022-11-19T08:44:20.100Z,5.60
2022-11-19T08:46:47.309Z,5.47
2022-11-19T08:49:14.446Z,5.32
2022-11-19T08:51:43.930Z,4.53
2022-11-19T08:54:10.894Z,5.78
2022-11-19T08:56:37.873Z,5.15
2022-11-19T08:59:05.367Z,5.22
2022-11-19T09:01:32.327Z,4.78
2022-11-19T09:03:59.330Z,5.32
2022-11-19T09:06:26.627Z,4.05
2022-11-19T09:08:53.989Z,5.65
2022-11-19T09:11:22.494Z,4.70
2022-11-19T09:13:49.631Z,4.47
2022-11-19T09:16:16.861Z,3.83
2022-11-19T09:18:43.907Z,5.75
2022-11-19T09:21:12.379Z,4.32
2022-11-19T09:23:41.451Z,4.60
2022-11-19T09:26:14.206Z,4.20
2022-11-19T09:28:42.203Z,5.25
2022-11-19T09:31:12.281Z,4.68
2022-11-19T09:33:45.844Z,5.93
2022-11-19T09:36:13.826Z,5.05
2022-11-19T09:38:41.270Z,4.70
2022-11-19T09:41:26.158Z,5.40
2022-11-19T09:44:12.483Z,5.55
2022-11-19T09:47:05.662Z,5.18
2022-11-19T09:49:53.522Z,5.70
2022-11-19T09:52:25.049Z,5.65
2022-11-19T09:54:57.484Z,3.90
2022-11-19T09:57:52.554Z,4.20
2022-11-19T10:00:22.845Z,3.92
2022-11-19T10:02:50.424Z,4.80
2022-11-19T10:05:29.508Z,4.55
2022-11-19T10:08:30.891Z,4.18
2022-11-19T10:11:09.778Z,4.65
2022-11-19T10:13:45.454Z,4.53
2022-11-19T10:16:38.903Z,4.57
2022-11-19T10:19:26.858Z,5.12
2022-11-19T10:22:21.808Z,4.70
2022-11-19T10:25:01.956Z,4.47
2022-11-19T10:27:52.274Z,3.72
2022-11-19T10:30:22.593Z,5.10
2022-11-19T10:33:25.529Z,4.12
2022-11-19T10:35:57.962Z,4.30
2022-11-19T10:38:35.838Z,5.07
2022-11-19T10:41:17.446Z,3.87
2022-11-19T10:43:56.706Z,4.25
2022-11-19T10:46:26.087Z,3.78
2022-11-19T10:48:58.032Z,4.75
2022-11-19T10:51:30.981Z,4.07
2022-11-19T10:53:58.043Z,4.82
2022-11-19T10:56:38.406Z,4.28
2022-11-19T10:59:22.713Z,4.15
2022-11-19T11:01:55.722Z,4.90
2022-11-19T11:04:25.575Z,4.97
2022-11-19T11:06:55.470Z,3.85
2022-11-19T11:09:40.572Z,4.37
2022-11-19T11:12:35.427Z,4.00
2022-11-19T11:15:14.289Z,3.62
2022-11-19T11:17:42.730Z,4.90
2022-11-19T11:20:18.424Z,3.80
2022-11-19T11:22:48.353Z,3.28
2022-11-19T11:25:28.938Z,3.72
2022-11-19T11:28:20.259Z,4.15
2022-11-19T11:30:57.337Z,4.93
2022-11-19T11:33:42.050Z,4.97
2022-11-19T11:36:19.176Z,3.78
2022-11-19T11:38:47.978Z,3.80
2022-11-19T11:42:03.372Z,3.30
2022-11-19T11:44:18.467Z,4.95
2022-11-19T11:46:55.631Z,5.10
2022-11-19T11:49:29.842Z,4.37
2022-11-19T11:52:09.690Z,4.25
2022-11-19T11:54:38.263Z,3.75
2022-11-19T11:57:16.205Z,5.25
2022-11-19T11:59:43.397Z,5.53
2022-11-19T12:02:32.977Z,5.00
2022-11-19T12:05:17.761Z,3.40
2022-11-19T12:07:47.844Z,3.90
2022-11-19T12:10:30.260Z,3.75
2022-11-19T12:13:42.034Z,4.10
2022-11-19T12:16:13.318Z,4.25
2022-11-19T12:19:27.662Z,4.85
2022-11-19T12:21:57.358Z,3.50
2022-11-19T12:24:26.965Z,4.75
2022-11-19T12:27:15.099Z,4.40
2022-11-19T12:30:05.343Z,4.32
2022-11-19T12:32:51.166Z,4.90
2022-11-19T12:35:33.196Z,4.18
2022-11-19T12:38:26.158Z,4.25
2022-11-19T12:41:26.079Z,3.85
2022-11-19T12:44:34.417Z,4.05
2022-11-19T12:47:12.600Z,4.75
2022-11-19T12:49:42.230Z,4.03
2022-11-19T12:52:24.174Z,3.92
2022-11-19T12:55:15.678Z,4.15
2022-11-19T12:57:56.650Z,4.35
2022-11-19T13:00:25.400Z,4.05
2022-11-19T13:03:25.510Z,4.75
2022-11-19T13:06:00.522Z,4.32
2022-11-19T13:08:30.691Z,4.28
2022-11-19T13:11:05.366Z,3.78
2022-11-19T13:13:35.601Z,5.22
2022-11-19T13:16:15.730Z,4.55
2022-11-19T13:18:46.398Z,4.00
2022-11-19T13:21:38.411Z,5.28
2022-11-19T13:24:39.312Z,3.55
2022-11-19T13:27:16.592Z,3.70
2022-11-19T13:29:56.902Z,4.43
2022-11-19T13:32:30.280Z,5.03
2022-11-19T13:35:15.757Z,4.00
2022-11-19T13:38:08.298Z,4.72
2022-11-19T13:40:45.949Z,4.35
2022-11-19T13:43:38.172Z,3.62
2022-11-19T13:46:10.853Z,4.55
2022-11-19T13:48:48.489Z,4.57
2022-11-19T13:51:39.072Z,4.15
2022-11-19T13:54:08.816Z,5.10
2022-11-19T13:56:48.494Z,5.18
2022-11-19T13:59:30.905Z,4.37
2022-11-19T14:02:18.248Z,4.05
2022-11-19T14:04:51.496Z,4.35
2022-11-19T14:07:31.219Z,4.30
2022-11-19T14:10:25.002Z,4.68
2022-11-19T14:13:14.991Z,4.10
2022-11-19T14:16:06.613Z,4.20
2022-11-19T14:18:57.492Z,4.30
2022-11-19T14:21:43.295Z,3.55
2022-11-19T14:24:43.902Z,4.25
2022-11-19T14:27:20.818Z,5.15
2022-11-19T14:29:47.718Z,4.65
2022-11-19T14:32:14.641Z,3.60
2022-11-19T14:35:08.944Z,5.03
2022-11-19T14:37:45.962Z,4.10
2022-11-19T14:40:12.912Z,3.87
2022-11-19T14:43:18.406Z,4.03
2022-11-19T14:46:04.518Z,4.30
2022-11-19T14:48:40.518Z,5.03
2022-11-19T14:51:16.806Z,4.10
2022-11-19T14:53:51.994Z,4.18
2022-11-19T14:56:21.969Z,4.22
2022-11-19T14:58:55.370Z,4.32
2022-11-19T15:01:24.191Z,4.60
2022-11-19T15:04:02.790Z,5.00
2022-11-19T15:06:35.511Z,4.20
2022-11-19T15:09:02.837Z,4.25
2022-11-19T15:12:09.622Z,4.47
2022-11-19T15:15:00.354Z,4.60
2022-11-19T15:17:28.386Z,4.55
2022-11-19T15:20:16.785Z,4.75
2022-11-19T15:23:06.527Z,4.20
2022-11-19T15:25:42.201Z,4.00
2022-11-19T15:28:44.304Z,4.93
2022-11-19T15:31:36.114Z,3.87
2022-11-19T15:34:49.078Z,4.30
2022-11-19T15:37:36.773Z,4.68
2022-11-19T15:40:04.677Z,4.05
2022-11-19T15:42:42.893Z,3.78
2022-11-19T15:45:22.518Z,4.90
2022-11-19T15:47:57.548Z,4.85
2022-11-19T15:50:25.655Z,3.97
2022-11-19T15:53:14.522Z,4.00
2022-11-19T15:55:57.869Z,4.28
2022-11-19T15:58:31.466Z,4.40
2022-11-19T16:00:58.761Z,3.80
2022-11-19T16:03:25.950Z,4.00
2022-11-19T16:06:02.075Z,4.00
2022-11-19T16:08:29.263Z,3.50
2022-11-19T16:11:20.307Z,4.28
2022-11-19T16:14:11.153Z,4.00
2022-11-19T16:16:58.287Z,4.28
2022-11-19T16:19:25.314Z,5.62
2022-11-19T16:22:00.061Z,4.22
2022-11-19T16:24:46.221Z,3.95
2022-11-19T16:27:20.482Z,4.05
2022-11-19T16:29:47.718Z,3.97
2022-11-19T16:32:18.753Z,4.25
2022-11-19T16:34:46.146Z,5.32
2022-11-19T16:37:14.669Z,4.22
2022-11-19T16:39:43.441Z,5.62
2022-11-19T16:42:18.959Z,4.62
2022-11-19T16:44:53.176Z,4.85
2022-11-19T16:47:32.368Z,4.72
2022-11-19T16:50:07.029Z,4.43
2022-11-19T16:52:34.479Z,3.92
2022-11-19T16:55:02.687Z,3.80
2022-11-19T16:57:31.453Z,3.95
2022-11-19T17:00:20.007Z,4.07
2022-11-19T17:02:48.484Z,3.95
2022-11-19T17:05:18.925Z,4.62
2022-11-19T17:07:52.209Z,3.78
2022-11-19T17:10:24.314Z,4.22
2022-11-19T17:13:04.194Z,4.10
2022-11-19T17:15:45.034Z,3.90
2022-11-19T17:18:21.123Z,4.30
2022-11-19T17:20:50.730Z,4.30
2022-11-19T17:23:22.866Z,4.35
2022-11-19T17:25:51.794Z,3.35
2022-11-19T17:28:28.184Z,3.45
2022-11-19T17:30:56.196Z,4.65
2022-11-19T17:33:24.469Z,3.70
2022-11-19T17:35:52.407Z,3.78
2022-11-19T17:38:25.089Z,4.43
2022-11-19T17:41:04.015Z,4.70
2022-11-19T17:43:52.857Z,6.12
2022-11-19T17:46:21.208Z,4.60
2022-11-19T17:48:49.632Z,3.83
2022-11-19T17:51:19.061Z,4.68
2022-11-19T17:53:46.408Z,4.28
2022-11-19T17:56:19.895Z,4.70
2022-11-19T17:58:47.720Z,4.05
2022-11-19T18:01:15.739Z,5.47
2022-11-19T18:03:43.061Z,6.80
2022-11-19T18:06:15.186Z,4.80
2022-11-19T18:08:42.532Z,4.82
2022-11-19T18:11:16.541Z,4.87
2022-11-19T18:13:45.005Z,4.55
2022-11-19T18:16:23.684Z,5.95
2022-11-19T18:18:51.017Z,4.95
2022-11-19T18:21:23.125Z,4.43
2022-11-19T18:23:51.789Z,4.05
2022-11-19T18:26:22.343Z,5.30
2022-11-19T18:28:49.432Z,4.60
2022-11-19T18:31:22.242Z,4.22
2022-11-19T18:33:50.124Z,5.07
2022-11-19T18:36:17.466Z,4.45
2022-11-19T18:38:44.590Z,4.35
2022-11-19T18:41:13.151Z,4.57
2022-11-19T18:43:59.451Z,4.60
2022-11-19T18:46:26.786Z,4.53
2022-11-19T18:48:53.811Z,4.70
2022-11-19T18:51:21.762Z,5.25
2022-11-19T18:53:49.160Z,4.25
2022-11-19T18:56:17.694Z,4.90
2022-11-19T18:58:44.629Z,4.70
2022-11-19T19:01:13.116Z,5.55
2022-11-19T19:03:40.154Z,4.53
2022-11-19T19:06:08.415Z,4.25
2022-11-19T19:08:36.017Z,4.55
2022-11-19T19:11:25.083Z,3.95
2022-11-19T19:13:52.432Z,4.50
2022-11-19T19:16:19.537Z,4.57
2022-11-19T19:18:46.876Z,4.57
2022-11-19T19:21:18.726Z,5.43
2022-11-19T19:23:45.809Z,4.43
2022-11-19T19:26:13.966Z,4.68
2022-11-19T19:28:40.859Z,5.20
2022-11-19T19:31:07.944Z,3.40
2022-11-19T19:33:34.931Z,5.35
2022-11-19T19:36:06.119Z,4.10
2022-11-19T19:38:33.160Z,4.28
2022-11-19T19:41:07.949Z,4.90
2022-11-19T19:43:35.031Z,4.25
2022-11-19T19:46:07.110Z,3.90
2022-11-19T19:48:35.323Z,4.22
2022-11-19T19:51:02.508Z,4.00
2022-11-19T19:53:29.459Z,4.30
2022-11-19T19:56:08.247Z,4.00
2022-11-19T19:58:35.234Z,3.28
2022-11-19T20:01:07.273Z,4.15
2022-11-19T20:03:35.050Z,3.83
2022-11-19T20:06:07.057Z,4.07
2022-11-19T20:08:38.484Z,4.57
2022-11-19T20:11:18.024Z,4.30
2022-11-19T20:13:45.037Z,5.03
2022-11-19T20:16:17.838Z,4.15
2022-11-19T20:18:47.158Z,4.22
2022-11-19T20:21:16.932Z,4.47
2022-11-19T20:23:44.183Z,3.78
2022-11-19T20:26:17.272Z,4.03
2022-11-19T20:28:44.592Z,4.32
2022-11-19T20:31:20.003Z,3.62
2022-11-19T20:33:51.322Z,4.00
2022-11-19T20:36:18.223Z,3.90
2022-11-19T20:38:48.357Z,4.65
2022-11-19T20:41:35.942Z,4.30
2022-11-19T20:44:23.208Z,5.80
2022-11-19T20:47:03.800Z,4.75
2022-11-19T20:49:33.950Z,4.50
2022-11-19T20:52:01.378Z,3.90
2022-11-19T20:54:28.967Z,3.40
2022-11-19T20:56:57.030Z,3.55
2022-11-19T20:59:26.270Z,4.07
2022-11-19T21:01:54.698Z,3.30
2022-11-19T21:04:22.883Z,3.90
2022-11-19T21:06:50.298Z,3.70
2022-11-19T21:09:19.931Z,5.20
2022-11-19T21:11:47.668Z,3.42
2022-11-19T21:14:14.626Z,3.90
2022-11-19T21:16:41.634Z,3.78
2022-11-19T21:19:10.579Z,4.35
2022-11-19T21:21:37.926Z,3.37
2022-11-19T21:24:05.186Z,3.75
2022-11-19T21:26:32.139Z,3.92
2022-11-19T21:29:00.064Z,4.15
2022-11-19T21:31:39.045Z,3.30
2022-11-19T21:34:07.181Z,3.33
2022-11-19T21:36:34.189Z,3.00
2022-11-19T21:39:01.265Z,3.10
2022-11-19T21:41:28.212Z,5.18
2022-11-19T21:43:55.177Z,3.20
2022-11-19T21:46:22.131Z,5.47
2022-11-19T21:48:49.095Z,5.03
2022-11-19T21:51:20.095Z,3.17
2022-11-19T21:53:50.058Z,3.22
2022-11-19T21:56:17.009Z,3.15
2022-11-19T21:58:43.938Z,5.03
2022-11-19T22:01:11.229Z,3.40
2022-11-19T22:03:38.274Z,3.40
2022-11-19T22:06:08.156Z,2.90
2022-11-19T22:08:38.228Z,3.53
2022-11-19T22:11:26.412Z,4.47
2022-11-19T22:13:54.128Z,3.08
2022-11-19T22:16:21.556Z,4.32
2022-11-19T22:18:48.648Z,3.50
2022-11-19T22:21:16.059Z,3.90
2022-11-19T22:23:43.246Z,4.55
2022-11-19T22:26:11.809Z,5.43
2022-11-19T22:28:38.950Z,4.07
2022-11-19T22:31:06.230Z,4.65
2022-11-19T22:33:37.814Z,4.95
2022-11-19T22:36:10.093Z,4.78
2022-11-19T22:38:39.040Z,4.60
2022-11-19T22:41:08.888Z,5.05
2022-11-19T22:43:36.809Z,5.10
2022-11-19T22:46:04.140Z,4.20
2022-11-19T22:48:32.485Z,5.12
2022-11-19T22:50:59.982Z,5.55
2022-11-19T22:53:26.897Z,6.78
2022-11-19T22:55:53.850Z,5.05
2022-11-19T22:58:20.713Z,5.30
2022-11-19T23:00:49.436Z,5.18
2022-11-19T23:03:16.691Z,4.80
2022-11-19T23:05:49.709Z,5.97
2022-11-19T23:08:17.069Z,4.40
2022-11-19T23:10:44.266Z,4.62
2022-11-19T23:13:31.914Z,4.50
2022-11-19T23:16:14.254Z,4.97
2022-11-19T23:18:45.752Z,5.37
2022-11-19T23:21:16.528Z,5.25
2022-11-19T23:23:43.603Z,4.78
2022-11-19T23:26:12.992Z,4.75
2022-11-19T23:28:40.743Z,4.35
2022-11-19T23:31:15.579Z,4.87
2022-11-19T23:33:42.903Z,5.18
2022-11-19T23:36:22.079Z,4.55
2022-11-19T23:38:49.507Z,4.53
2022-11-19T23:41:18.388Z,4.60
2022-11-19T23:43:45.657Z,4.30
2022-11-19T23:46:18.475Z,5.00
2022-11-19T23:48:47.062Z,4.78
2022-11-19T23:51:17.139Z,5.05
2022-11-19T23:53:44.318Z,4.00
2022-11-19T23:56:13.410Z,5.65
2022-11-19T23:58:40.820Z,4.18
